createdAt,value
2018-04-01T00:02:25.539Z,63.30
2018-04-01T00:04:52.678Z,63.20
2018-04-01T00:07:19.798Z,63.20
2018-04-01T00:09:46.960Z,64.30
2018-04-01T00:12:14.072Z,64.90
2018-04-01T00:14:41.956Z,63.40
2018-04-01T00:17:09.132Z,63.30
2018-04-01T00:19:36.248Z,63.60
2018-04-01T00:22:03.411Z,63.00
2018-04-01T00:24:30.541Z,63.80
2018-04-01T00:26:58.417Z,64.20
2018-04-01T00:29:25.533Z,64.20
2018-04-01T00:31:52.680Z,64.20
2018-04-01T00:34:19.804Z,64.20
2018-04-01T00:36:46.913Z,64.10
2018-04-01T00:39:14.055Z,64.60
2018-04-01T00:41:41.171Z,64.50
2018-04-01T00:44:08.289Z,64.00
2018-04-01T00:46:35.447Z,64.30
2018-04-01T00:49:02.588Z,64.40
2018-04-01T00:51:29.711Z,64.80
2018-04-01T00:53:56.855Z,64.50
2018-04-01T00:56:24.739Z,64.60
2018-04-01T00:58:51.859Z,64.60
2018-04-01T01:01:19.777Z,65.30
2018-04-01T01:03:47.697Z,65.20
2018-04-01T01:06:15.615Z,65.60
2018-04-01T01:08:42.764Z,65.50
2018-04-01T01:11:09.908Z,65.70
2018-04-01T01:13:37.831Z,66.20
2018-04-01T01:16:04.951Z,66.10
2018-04-01T01:18:32.075Z,66.50
2018-04-01T01:20:59.188Z,66.30
2018-04-01T01:23:27.099Z,66.70
2018-04-01T01:25:54.211Z,66.60
2018-04-01T01:28:21.360Z,66.20
2018-04-01T01:30:48.514Z,66.40
2018-04-01T01:33:15.618Z,66.30
2018-04-01T01:35:42.743Z,66.30
2018-04-01T01:38:09.877Z,66.60
2018-04-01T01:40:37.008Z,66.20
2018-04-01T01:43:04.131Z,66.30
2018-04-01T01:45:32.024Z,66.20
2018-04-01T01:47:59.151Z,66.20
2018-04-01T01:50:27.072Z,66.70
2018-04-01T01:52:54.280Z,66.60
2018-04-01T01:55:22.163Z,65.80
2018-04-01T01:57:49.274Z,65.80
2018-04-01T02:00:16.424Z,66.20
2018-04-01T02:02:43.531Z,66.00
2018-04-01T02:05:10.707Z,66.00
2018-04-01T02:07:37.865Z,65.70
2018-04-01T02:10:04.980Z,65.80
2018-04-01T02:12:32.172Z,65.50
2018-04-01T02:14:59.380Z,65.70
2018-04-01T02:17:26.548Z,66.30
2018-04-01T02:19:53.665Z,66.20
2018-04-01T02:22:20.846Z,66.60
2018-04-01T02:24:47.965Z,66.00
2018-04-01T02:27:15.072Z,66.10
2018-04-01T02:29:42.968Z,66.70
2018-04-01T02:32:10.086Z,66.70
2018-04-01T02:34:37.977Z,66.70
2018-04-01T02:37:05.151Z,66.70
2018-04-01T02:39:32.303Z,67.20
2018-04-01T02:41:59.420Z,67.40
2018-04-01T02:44:26.573Z,67.80
2018-04-01T02:46:54.460Z,68.00
2018-04-01T02:49:21.572Z,68.00
2018-04-01T02:51:48.720Z,68.00
2018-04-01T02:54:15.835Z,68.10
2018-04-01T02:56:42.956Z,68.20
2018-04-01T02:59:10.080Z,68.40
2018-04-01T03:01:37.206Z,68.20
2018-04-01T03:04:04.473Z,68.60
2018-04-01T03:06:32.388Z,69.00
2018-04-01T03:08:59.617Z,69.00
2018-04-01T03:11:26.728Z,69.20
2018-04-01T03:13:53.852Z,69.20
2018-04-01T03:16:20.975Z,69.20
2018-04-01T03:18:48.080Z,69.50
2018-04-01T03:21:15.242Z,69.70
2018-04-01T03:23:43.112Z,70.10
2018-04-01T03:26:10.986Z,70.20
2018-04-01T03:28:38.107Z,70.20
2018-04-01T03:31:05.226Z,70.40
2018-04-01T03:33:32.340Z,70.50
2018-04-01T03:35:59.500Z,70.70
2018-04-01T03:38:26.612Z,70.80
2018-04-01T03:40:53.722Z,70.80
2018-04-01T03:43:20.884Z,70.60
2018-04-01T03:45:48.010Z,70.80
2018-04-01T03:48:15.115Z,71.20
2018-04-01T03:50:42.269Z,71.20
2018-04-01T03:53:09.388Z,71.50
2018-04-01T03:55:36.510Z,71.50
2018-04-01T03:58:03.647Z,71.30
2018-04-01T04:00:30.768Z,71.30
2018-04-01T04:02:57.949Z,71.50
2018-04-01T04:05:25.108Z,71.50
2018-04-01T04:07:52.220Z,71.50
2018-04-01T04:10:19.332Z,71.90
2018-04-01T04:12:46.464Z,71.60
2018-04-01T04:15:13.581Z,71.80
2018-04-01T04:17:40.693Z,71.90
2018-04-01T04:20:08.612Z,72.20
2018-04-01T04:22:35.724Z,72.10
2018-04-01T04:25:02.832Z,72.40
2018-04-01T04:27:29.972Z,72.30
2018-04-01T04:29:57.096Z,72.70
2018-04-01T04:32:24.215Z,72.70
2018-04-01T04:34:52.122Z,72.60
2018-04-01T04:37:19.248Z,72.60
2018-04-01T04:39:46.409Z,73.10
2018-04-01T04:46:22.854Z,72.70
2018-04-01T04:51:26.427Z,73.00
2018-04-01T04:53:54.301Z,73.10
2018-04-01T04:56:21.678Z,73.20
2018-04-01T05:01:30.136Z,73.20
2018-04-01T05:03:57.305Z,73.20
2018-04-01T05:06:24.459Z,73.20
2018-04-01T05:08:51.628Z,73.20
2018-04-01T05:11:18.772Z,73.40
2018-04-01T05:13:45.887Z,73.40
2018-04-01T05:18:44.321Z,73.50
2018-04-01T05:21:11.447Z,73.30
2018-04-01T05:23:38.595Z,73.60
2018-04-01T05:26:05.716Z,73.70
2018-04-01T05:28:32.848Z,73.70
2018-04-01T05:31:00.010Z,73.60
2018-04-01T05:33:27.923Z,73.70
2018-04-01T05:35:55.072Z,73.50
2018-04-01T05:38:22.188Z,73.80
2018-04-01T05:40:50.079Z,74.30
2018-04-01T05:43:17.220Z,73.50
2018-04-01T05:45:44.380Z,73.40
2018-04-01T05:48:11.534Z,74.30
2018-04-01T05:50:38.648Z,73.70
2018-04-01T05:53:06.526Z,73.70
2018-04-01T05:55:34.443Z,73.80
2018-04-01T05:58:01.569Z,73.80
2018-04-01T06:00:28.680Z,73.90
2018-04-01T06:02:56.576Z,73.50
2018-04-01T06:05:23.723Z,73.50
2018-04-01T06:07:50.840Z,73.30
2018-04-01T06:10:17.960Z,73.20
2018-04-01T06:12:45.096Z,73.10
2018-04-01T06:15:12.207Z,72.90
2018-04-01T06:17:40.121Z,72.80
2018-04-01T06:20:07.236Z,72.80
2018-04-01T06:22:34.346Z,72.90
2018-04-01T06:25:01.459Z,72.40
2018-04-01T06:27:28.572Z,72.70
2018-04-01T06:29:55.688Z,72.70
2018-04-01T06:32:22.854Z,72.30
2018-04-01T06:34:50.735Z,72.40
2018-04-01T06:37:17.908Z,72.40
2018-04-01T06:39:45.073Z,71.80
2018-04-01T06:42:12.179Z,72.20
2018-04-01T06:44:40.047Z,71.90
2018-04-01T06:47:07.175Z,71.80
2018-04-01T06:49:34.287Z,72.10
2018-04-01T06:52:01.401Z,71.30
2018-04-01T06:54:28.548Z,71.20
2018-04-01T06:56:55.655Z,71.20
2018-04-01T06:59:22.768Z,70.90
2018-04-01T07:01:49.913Z,70.00
2018-04-01T07:04:17.025Z,69.50
2018-04-01T07:06:44.921Z,68.80
2018-04-01T07:09:12.040Z,68.70
2018-04-01T07:11:39.151Z,68.60
2018-04-01T07:14:06.267Z,68.20
2018-04-01T07:16:33.380Z,68.00
2018-04-01T07:19:01.260Z,66.90
2018-04-01T07:21:29.139Z,67.10
2018-04-01T07:23:56.260Z,67.10
2018-04-01T07:26:23.368Z,65.40
2018-04-01T07:28:50.471Z,65.40
2018-04-01T07:31:18.356Z,64.20
2018-04-01T07:33:45.473Z,64.20
2018-04-01T07:36:12.588Z,64.50
2018-04-01T07:38:39.708Z,64.30
2018-04-01T07:41:06.824Z,64.00
2018-04-01T07:43:33.953Z,64.00
2018-04-01T07:46:01.092Z,62.80
2018-04-01T07:48:28.224Z,62.70
2018-04-01T07:50:55.342Z,62.90
2018-04-01T07:53:22.484Z,62.40
2018-04-01T07:55:50.361Z,62.00
2018-04-01T07:58:17.524Z,62.10
2018-04-01T08:00:44.696Z,62.30
2018-04-01T08:03:11.811Z,62.00
2018-04-01T08:05:38.927Z,61.30
2018-04-01T08:08:06.105Z,61.80
2018-04-01T08:10:33.220Z,61.80
2018-04-01T08:13:00.323Z,62.10
2018-04-01T08:15:27.459Z,61.20
2018-04-01T08:17:54.565Z,60.90
2018-04-01T08:20:21.678Z,60.50
2018-04-01T08:22:48.804Z,60.60
2018-04-01T08:25:15.915Z,60.00
2018-04-01T08:27:43.032Z,60.90
2018-04-01T08:30:10.147Z,59.60
2018-04-01T08:32:37.288Z,59.50
2018-04-01T08:35:04.408Z,59.50
2018-04-01T08:37:31.527Z,59.60
2018-04-01T08:39:58.641Z,58.90
2018-04-01T08:42:25.751Z,59.10
2018-04-01T08:44:52.900Z,59.20
2018-04-01T08:47:20.015Z,58.70
2018-04-01T08:49:47.117Z,58.90
2018-04-01T08:52:14.257Z,58.80
2018-04-01T08:54:41.376Z,59.40
2018-04-01T08:57:08.492Z,58.30
2018-04-01T08:59:36.585Z,58.10
2018-04-01T09:02:03.686Z,57.10
2018-04-01T09:04:30.792Z,57.10
2018-04-01T09:06:57.916Z,56.70
2018-04-01T09:09:25.065Z,56.60
2018-04-01T09:11:52.227Z,56.40
2018-04-01T09:14:19.352Z,56.10
2018-04-01T09:16:46.479Z,56.00
2018-04-01T09:19:14.364Z,55.40
2018-04-01T09:21:41.496Z,55.30
2018-04-01T09:24:09.383Z,55.00
2018-04-01T09:26:36.519Z,55.00
2018-04-01T09:29:03.646Z,54.80
2018-04-01T09:31:30.768Z,54.00
2018-04-01T09:33:57.884Z,53.50
2018-04-01T09:36:24.999Z,54.00
2018-04-01T09:38:52.152Z,53.70
2018-04-01T09:41:19.271Z,54.10
2018-04-01T09:43:46.394Z,52.30
2018-04-01T09:46:13.496Z,52.70
2018-04-01T09:48:41.376Z,51.90
2018-04-01T09:51:09.304Z,51.80
2018-04-01T09:53:36.431Z,51.70
2018-04-01T09:56:03.556Z,51.70
2018-04-01T09:58:30.676Z,52.70
2018-04-01T10:01:00.925Z,52.70
2018-04-01T10:03:28.553Z,52.70
2018-04-01T10:05:56.173Z,51.80
2018-04-01T10:08:23.779Z,52.60
2018-04-01T10:10:52.141Z,53.60
2018-04-01T10:13:19.775Z,53.60
2018-04-01T10:15:47.377Z,51.80
2018-04-01T10:18:15.010Z,52.10
2018-04-01T10:20:42.627Z,52.00
2018-04-01T10:23:10.220Z,51.70
2018-04-01T10:25:37.823Z,51.60
2018-04-01T10:28:05.432Z,51.80
2018-04-01T10:30:33.048Z,51.20
2018-04-01T10:33:01.412Z,51.70
2018-04-01T10:35:29.083Z,51.70
2018-04-01T10:37:57.443Z,55.70
2018-04-01T10:40:25.041Z,55.00
2018-04-01T10:42:52.644Z,67.20
2018-04-01T10:45:20.248Z,52.10
2018-04-01T10:47:47.868Z,50.60
2018-04-01T10:50:15.483Z,50.50
2018-04-01T10:52:43.079Z,50.30
2018-04-01T10:55:10.192Z,50.90
2018-04-01T10:57:37.320Z,52.10
2018-04-01T11:00:04.439Z,50.70
2018-04-01T11:02:31.555Z,50.40
2018-04-01T11:04:58.672Z,50.40
2018-04-01T11:07:25.787Z,50.30
2018-04-01T11:09:52.911Z,51.80
2018-04-01T11:12:20.028Z,50.90
2018-04-01T11:14:47.144Z,49.90
2018-04-01T11:17:14.257Z,51.30
2018-04-01T11:19:41.380Z,50.10
2018-04-01T11:22:08.488Z,49.10
2018-04-01T11:24:35.598Z,49.10
2018-04-01T11:27:02.736Z,48.30
2018-04-01T11:29:29.841Z,49.40
2018-04-01T11:31:56.949Z,48.70
2018-04-01T11:34:24.100Z,47.80
2018-04-01T11:36:51.208Z,47.20
2018-04-01T11:39:19.095Z,48.30
2018-04-01T11:41:46.249Z,48.30
2018-04-01T11:44:13.359Z,47.70
2018-04-01T11:46:41.252Z,46.90
2018-04-01T11:49:08.367Z,46.90
2018-04-01T11:51:35.490Z,46.90
2018-04-01T11:54:02.640Z,47.50
2018-04-01T11:56:29.762Z,46.60
2018-04-01T11:58:56.867Z,47.00
2018-04-01T12:01:23.983Z,46.30
2018-04-01T12:03:51.107Z,46.10
2018-04-01T12:06:18.202Z,46.90
2018-04-01T12:08:45.330Z,45.50
2018-04-01T12:11:12.464Z,46.00
2018-04-01T12:13:39.571Z,45.50
2018-04-01T12:16:07.455Z,45.50
2018-04-01T12:18:34.575Z,44.20
2018-04-01T12:21:02.459Z,44.20
2018-04-01T12:23:30.340Z,44.40
2018-04-01T12:25:57.456Z,44.40
2018-04-01T12:28:25.344Z,45.50
2018-04-01T12:30:53.252Z,46.30
2018-04-01T12:33:20.377Z,46.30
2018-04-01T12:35:47.483Z,45.30
2018-04-01T12:38:15.377Z,44.20
2018-04-01T12:40:42.512Z,44.20
2018-04-01T12:43:10.531Z,41.90
2018-04-01T12:45:37.642Z,42.70
2018-04-01T12:48:05.529Z,41.40
2018-04-01T12:50:32.636Z,41.40
2018-04-01T12:52:59.753Z,40.20
2018-04-01T12:55:26.887Z,40.40
2018-04-01T12:57:53.999Z,39.10
2018-04-01T13:00:21.115Z,39.90
2018-04-01T13:02:48.237Z,38.90
2018-04-01T13:05:15.373Z,39.40
2018-04-01T13:07:42.490Z,40.00
2018-04-01T13:10:10.392Z,39.80
2018-04-01T13:12:37.569Z,39.80
2018-04-01T13:15:04.687Z,38.90
2018-04-01T13:17:31.812Z,38.10
2018-04-01T13:19:58.925Z,39.60
2018-04-01T13:22:26.044Z,40.40
2018-04-01T13:24:53.172Z,40.60
2018-04-01T13:27:20.290Z,41.00
2018-04-01T13:29:47.460Z,40.40
2018-04-01T13:32:15.344Z,41.60
2018-04-01T13:34:42.490Z,40.90
2018-04-01T13:37:09.596Z,41.00
2018-04-01T13:39:36.731Z,40.80
2018-04-01T13:42:03.926Z,42.10
2018-04-01T13:44:31.035Z,43.10
2018-04-01T13:46:58.229Z,43.00
2018-04-01T13:49:25.486Z,43.70
2018-04-01T13:51:52.605Z,43.90
2018-04-01T13:54:20.508Z,43.40
2018-04-01T13:56:47.644Z,43.30
2018-04-01T13:59:14.760Z,44.70
2018-04-01T14:01:41.881Z,44.00
2018-04-01T14:04:09.003Z,43.70
2018-04-01T14:06:36.147Z,44.20
2018-04-01T14:09:03.275Z,44.50
2018-04-01T14:11:30.388Z,43.40
2018-04-01T14:13:57.500Z,43.40
2018-04-01T14:16:24.681Z,42.20
2018-04-01T14:18:51.792Z,43.50
2018-04-01T14:21:18.904Z,43.10
2018-04-01T14:23:46.024Z,43.50
2018-04-01T14:26:13.176Z,42.60
2018-04-01T14:28:40.284Z,42.70
2018-04-01T14:31:07.404Z,44.30
2018-04-01T14:33:35.289Z,44.30
2018-04-01T14:36:02.406Z,44.30
2018-04-01T14:38:29.587Z,44.80
2018-04-01T14:40:56.663Z,45.00
2018-04-01T14:43:23.786Z,43.90
2018-04-01T14:45:51.724Z,45.20
2018-04-01T14:48:18.823Z,45.70
2018-04-01T14:50:45.957Z,44.40
2018-04-01T14:53:13.109Z,44.50
2018-04-01T14:55:40.215Z,44.40
2018-04-01T14:58:07.334Z,44.30
2018-04-01T15:00:34.456Z,45.30
2018-04-01T15:03:01.576Z,45.00
2018-04-01T15:05:29.482Z,45.70
2018-04-01T15:07:56.611Z,45.70
2018-04-01T15:10:24.488Z,45.80
2018-04-01T15:12:51.609Z,46.40
2018-04-01T15:15:19.500Z,45.90
2018-04-01T15:17:46.624Z,45.90
2018-04-01T15:20:15.340Z,46.00
2018-04-01T15:22:42.457Z,46.00
2018-04-01T15:25:09.564Z,46.40
2018-04-01T15:27:36.672Z,46.20
2018-04-01T15:30:04.557Z,46.10
2018-04-01T15:32:31.651Z,46.00
2018-04-01T15:34:58.761Z,47.20
2018-04-01T15:37:25.872Z,46.90
2018-04-01T15:39:52.975Z,47.70
2018-04-01T15:42:20.108Z,47.30
2018-04-01T15:44:47.245Z,47.60
2018-04-01T15:47:14.396Z,48.00
2018-04-01T15:49:41.507Z,47.90
2018-04-01T15:52:09.472Z,48.00
2018-04-01T15:54:36.582Z,48.00
2018-04-01T15:57:04.454Z,48.80
2018-04-01T15:59:31.612Z,48.80
2018-04-01T16:01:58.732Z,49.40
2018-04-01T16:04:25.840Z,49.70
2018-04-01T16:06:52.968Z,49.20
2018-04-01T16:09:20.084Z,49.80
2018-04-01T16:11:47.242Z,49.70
2018-04-01T16:14:14.369Z,49.40
2018-04-01T16:16:41.477Z,49.30
2018-04-01T16:19:08.613Z,50.10
2018-04-01T16:21:35.745Z,50.00
2018-04-01T16:24:02.856Z,50.30
2018-04-01T16:26:29.973Z,50.10
2018-04-01T16:28:57.100Z,50.10
2018-04-01T16:31:24.216Z,50.40
2018-04-01T16:33:51.317Z,50.70
2018-04-01T16:36:18.484Z,51.10
2018-04-01T16:38:46.360Z,50.60
2018-04-01T16:41:13.476Z,50.60
2018-04-01T16:43:40.656Z,51.40
2018-04-01T16:46:07.800Z,50.20
2018-04-01T16:48:34.929Z,50.20
2018-04-01T16:51:02.067Z,50.60
2018-04-01T16:53:29.176Z,50.90
2018-04-01T16:55:56.284Z,50.70
2018-04-01T16:58:23.406Z,50.30
2018-04-01T17:00:50.514Z,51.70
2018-04-01T17:03:17.628Z,51.00
2018-04-01T17:05:44.749Z,51.30
2018-04-01T17:08:11.861Z,51.20
2018-04-01T17:10:38.968Z,51.40
2018-04-01T17:13:06.097Z,52.30
2018-04-01T17:15:33.229Z,51.60
2018-04-01T17:18:00.341Z,51.70
2018-04-01T17:20:28.238Z,52.40
2018-04-01T17:22:55.363Z,52.30
2018-04-01T17:25:22.472Z,52.60
2018-04-01T17:27:49.658Z,52.70
2018-04-01T17:30:17.536Z,53.10
2018-04-01T17:32:44.649Z,53.00
2018-04-01T17:35:11.787Z,53.30
2018-04-01T17:37:38.899Z,53.30
2018-04-01T17:40:06.024Z,53.90
2018-04-01T17:42:33.148Z,54.20
2018-04-01T17:45:00.263Z,54.20
2018-04-01T17:47:27.380Z,54.40
2018-04-01T17:49:54.500Z,54.80
2018-04-01T17:52:21.669Z,55.20
2018-04-01T17:54:49.548Z,55.00
2018-04-01T17:57:16.672Z,55.10
2018-04-01T17:59:44.548Z,55.00
2018-04-01T18:02:11.686Z,55.00
2018-04-01T18:04:39.575Z,55.50
2018-04-01T18:07:06.679Z,55.40
2018-04-01T18:09:33.799Z,55.70
2018-04-01T18:12:01.704Z,56.00
2018-04-01T18:14:28.816Z,56.00
2018-04-01T18:16:55.935Z,56.10
2018-04-01T18:19:23.055Z,56.50
2018-04-01T18:21:50.931Z,56.50
2018-04-01T18:24:18.848Z,56.40
2018-04-01T18:26:45.968Z,57.00
2018-04-01T18:29:13.104Z,56.60
2018-04-01T18:31:40.987Z,57.90
2018-04-01T18:34:08.104Z,57.90
2018-04-01T18:36:35.972Z,57.70
2018-04-01T18:39:03.865Z,57.90
2018-04-01T18:41:30.992Z,57.90
2018-04-01T18:43:58.101Z,58.40
2018-04-01T18:46:25.212Z,58.20
2018-04-01T18:48:52.347Z,58.80
2018-04-01T18:51:20.220Z,58.40
2018-04-01T18:53:47.340Z,58.30
2018-04-01T18:56:14.476Z,58.10
2018-04-01T18:58:41.608Z,58.30
2018-04-01T19:01:08.783Z,59.00
2018-04-01T19:03:35.897Z,58.50
2018-04-01T19:06:03.013Z,60.30
2018-04-01T19:08:30.119Z,59.70
2018-04-01T19:10:57.242Z,59.70
2018-04-01T19:13:24.352Z,59.70
2018-04-01T19:15:52.236Z,58.70
2018-04-01T19:18:19.876Z,58.70
2018-04-01T19:20:48.248Z,59.20
2018-04-01T19:23:16.616Z,58.80
2018-04-01T19:25:45.006Z,59.40
2018-04-01T19:28:13.372Z,60.70
2018-04-01T19:30:40.970Z,60.60
2018-04-01T19:33:08.598Z,60.30
2018-04-01T19:35:36.964Z,59.50
2018-04-01T19:38:04.567Z,59.50
2018-04-01T19:40:32.215Z,61.20
2018-04-01T19:42:59.831Z,60.90
2018-04-01T19:45:27.456Z,61.60
2018-04-01T19:47:55.092Z,61.50
2018-04-01T19:50:22.688Z,61.60
2018-04-01T19:52:50.300Z,61.60
2018-04-01T19:55:18.727Z,63.20
2018-04-01T19:57:46.344Z,63.10
2018-04-01T20:00:13.984Z,63.70
2018-04-01T20:02:41.617Z,63.70
2018-04-01T20:05:09.227Z,63.30
2018-04-01T20:07:37.608Z,64.90
2018-04-01T20:10:06.008Z,64.90
2018-04-01T20:12:33.649Z,64.80
2018-04-01T20:15:01.267Z,65.70
2018-04-01T20:17:28.896Z,66.80
2018-04-01T20:19:56.496Z,74.10
2018-04-01T20:22:24.131Z,67.10
2018-04-01T20:24:51.744Z,66.10
2018-04-01T20:27:20.162Z,67.70
2018-04-01T20:29:47.747Z,67.60
2018-04-01T20:32:15.356Z,66.80
2018-04-01T20:34:42.956Z,67.20
2018-04-01T20:37:10.555Z,66.20
2018-04-01T20:39:38.936Z,66.40
2018-04-01T20:42:06.544Z,66.40
2018-04-01T20:44:34.152Z,66.30
2018-04-01T20:47:01.801Z,65.60
2018-04-01T20:49:29.422Z,65.70
2018-04-01T20:51:57.028Z,66.30
2018-04-01T20:54:24.660Z,66.60
2018-04-01T20:56:52.263Z,66.20
2018-04-01T20:59:20.652Z,66.70
2018-04-01T21:01:49.040Z,67.10
2018-04-01T21:04:16.678Z,67.10
2018-04-01T21:06:44.299Z,66.90
2018-04-01T21:09:11.920Z,66.20
2018-04-01T21:11:40.302Z,65.90
2018-04-01T21:14:07.927Z,65.90
2018-04-01T21:16:35.552Z,67.00
2018-04-01T21:19:03.204Z,67.10
2018-04-01T21:21:30.827Z,67.70
2018-04-01T21:23:59.222Z,63.60
2018-04-01T21:26:26.833Z,63.50
2018-04-01T21:28:54.436Z,63.90
2018-04-01T21:31:22.828Z,64.10
2018-04-01T21:33:50.435Z,64.10
2018-04-01T21:36:18.037Z,62.20
2018-04-01T21:38:46.437Z,62.10
2018-04-01T21:41:14.036Z,62.10
2018-04-01T21:43:41.640Z,61.40
2018-04-01T21:46:09.260Z,61.50
2018-04-01T21:48:36.879Z,61.50
2018-04-01T21:51:04.544Z,61.90
2018-04-01T21:53:32.188Z,62.70
2018-04-01T21:55:59.792Z,63.90
2018-04-01T21:58:27.387Z,64.60
2018-04-01T22:00:55.780Z,65.30
2018-04-01T22:03:23.387Z,65.30
2018-04-01T22:05:51.011Z,64.80
2018-04-01T22:08:18.629Z,66.20
2018-04-01T22:10:46.242Z,66.00
2018-04-01T22:13:13.868Z,66.90
2018-04-01T22:15:42.264Z,67.20
2018-04-01T22:18:09.873Z,67.20
2018-04-01T22:20:37.475Z,67.50
2018-04-01T22:23:12.786Z,68.80
2018-04-01T22:25:40.436Z,68.80
2018-04-01T22:28:08.056Z,68.90
2018-04-01T22:30:35.726Z,69.10
2018-04-01T22:33:03.332Z,69.70
2018-04-01T22:35:30.965Z,70.10
2018-04-01T22:37:58.596Z,70.80
2018-04-01T22:40:26.211Z,70.90
2018-04-01T22:42:53.820Z,71.00
2018-04-01T22:45:21.435Z,71.80
2018-04-01T22:47:49.055Z,72.60
2018-04-01T22:50:16.689Z,71.80
2018-04-01T22:52:44.324Z,72.70
2018-04-01T22:55:11.948Z,74.40
2018-04-01T22:57:39.551Z,73.20
2018-04-01T23:00:07.988Z,73.70
2018-04-01T23:02:35.593Z,73.60
2018-04-01T23:05:03.976Z,73.70
2018-04-01T23:07:32.364Z,72.70
2018-04-01T23:10:00.742Z,74.30
2018-04-01T23:12:29.126Z,75.30
2018-04-01T23:14:56.743Z,75.20
2018-04-01T23:17:24.360Z,75.40
2018-04-01T23:19:51.968Z,75.50
2018-04-01T23:22:19.604Z,76.20
2018-04-01T23:24:47.224Z,77.10
2018-04-01T23:27:14.848Z,77.80
2018-04-01T23:29:42.636Z,77.90
2018-04-01T23:32:10.388Z,78.50
2018-04-01T23:34:38.021Z,78.80
2018-04-01T23:37:05.821Z,79.30
2018-04-01T23:39:34.216Z,79.40
2018-04-01T23:42:01.843Z,79.30
2018-04-01T23:44:29.468Z,79.40
2018-04-01T23:46:57.093Z,79.40
2018-04-01T23:49:24.702Z,80.10
2018-04-01T23:51:52.332Z,80.30
2018-04-01T23:54:19.944Z,80.70
2018-04-01T23:56:47.552Z,80.80
2018-04-01T23:59:15.179Z,81.30
